Time;durP1;ratioP1;P1;durP2;ratioP2;P2;SDS_P1;SDS_P2;PMS_P1;PMS_P2;Temp;Humidity;BMP_temperature;BMP_pressure;BME280_temperature;BME280_humidity;BME280_pressure;Samples;Min_cycle;Max_cycle;Signal;HPM_P1;HPM_P2
2022/02/16 00:00:16;;;;;;;14.13;3.37;;;25.10;61.40;;;;;;5028670;28;20202;-79
2022/02/16 00:02:44;;;;;;;17.03;3.23;;;25.00;61.70;;;;;;5033482;28;20188;-78
2022/02/16 00:05:12;;;;;;;11.67;2.60;;;25.00;62.10;;;;;;5030643;28;20267;-79
2022/02/16 00:07:40;;;;;;;10.17;2.00;;;25.10;60.80;;;;;;5032300;28;20264;-78
2022/02/16 00:10:10;;;;;;;14.53;2.93;;;25.30;59.70;;;;;;5034970;28;20188;-77
2022/02/16 00:12:37;;;;;;;13.03;1.93;;;25.80;58.60;;;;;;5035429;28;20258;-80
2022/02/16 00:15:19;;;;;;;12.80;2.47;;;26.30;55.40;;;;;;5033642;28;20511;-84
2022/02/16 00:17:46;;;;;;;13.30;2.60;;;26.80;54.40;;;;;;5032621;28;20594;-83
2022/02/16 00:20:26;;;;;;;12.43;3.03;;;27.10;52.50;;;;;;5035090;28;20662;-89
2022/02/16 00:22:57;;;;;;;10.40;4.13;;;27.20;52.90;;;;;;5033397;28;20721;-88
2022/02/16 00:25:24;;;;;;;12.73;3.17;;;27.10;51.30;;;;;;5034188;28;20208;-82
2022/02/16 00:28:24;;;;;;;10.57;2.10;;;27.30;52.40;;;;;;5031897;28;20518;-85
2022/02/16 00:30:55;;;;;;;13.73;2.40;;;27.60;49.60;;;;;;5020499;28;20204;-79
2022/02/16 00:33:23;;;;;;;8.20;1.77;;;27.40;49.30;;;;;;5035028;28;20631;-87
2022/02/16 00:35:53;;;;;;;11.33;1.77;;;27.30;49.20;;;;;;5035800;28;20180;-85
2022/02/16 00:38:20;;;;;;;8.73;2.00;;;27.60;50.20;;;;;;5049544;28;20196;-83
2022/02/16 00:40:48;;;;;;;8.93;1.70;;;27.90;49.60;;;;;;5035081;28;20225;-87
2022/02/16 00:43:19;;;;;;;12.53;2.10;;;27.80;48.90;;;;;;5033905;28;20455;-85
2022/02/16 00:45:51;;;;;;;18.33;2.87;;;27.60;50.40;;;;;;5034149;28;20266;-80
2022/02/16 00:48:19;;;;;;;9.47;2.03;;;27.40;51.60;;;;;;5035201;28;20188;-84
2022/02/16 00:50:46;;;;;;;16.60;4.07;;;27.50;50.60;;;;;;5033492;28;20184;-82
2022/02/16 00:53:21;;;;;;;9.73;3.07;;;27.80;51.20;;;;;;5041384;28;20185;-85
2022/02/16 00:55:49;;;;;;;15.63;4.00;;;28.00;49.70;;;;;;5040644;28;20246;-87
2022/02/16 00:58:20;;;;;;;12.07;2.50;;;28.10;49.80;;;;;;5042675;28;20188;-85
2022/02/16 01:00:48;;;;;;;13.17;2.67;;;28.40;49.90;;;;;;5042124;28;20203;-83
2022/02/16 01:03:16;;;;;;;11.77;2.40;;;28.10;48.90;;;;;;5052435;28;20181;-80
2022/02/16 01:05:45;;;;;;;9.10;2.40;;;28.20;49.90;;;;;;5048836;28;20235;-78
2022/02/16 01:08:13;;;;;;;12.00;2.57;;;28.30;49.60;;;;;;5047329;28;20188;-81
2022/02/16 01:10:41;;;;;;;14.90;2.63;;;28.10;50.20;;;;;;5034405;28;20216;-79
2022/02/16 01:13:09;;;;;;;12.30;2.37;;;28.10;50.20;;;;;;5028631;28;20185;-80
2022/02/16 01:15:37;;;;;;;10.70;2.20;;;28.00;49.90;;;;;;5032152;28;20207;-80
2022/02/16 01:18:04;;;;;;;11.33;2.20;;;28.30;49.40;;;;;;5034484;28;20192;-79
2022/02/16 01:20:32;;;;;;;11.87;2.80;;;28.50;48.50;;;;;;5030994;28;20270;-81
2022/02/16 01:22:59;;;;;;;8.43;2.10;;;28.30;48.90;;;;;;5032818;28;20185;-82
2022/02/16 01:25:26;;;;;;;12.53;2.30;;;28.20;49.60;;;;;;5032161;28;20210;-77
2022/02/16 01:27:54;;;;;;;8.43;2.87;;;28.50;49.20;;;;;;5032177;28;20714;-84
2022/02/16 01:30:21;;;;;;;13.90;2.57;;;28.80;47.30;;;;;;5032638;28;20216;-79
2022/02/16 01:32:48;;;;;;;11.90;3.20;;;28.80;47.90;;;;;;5033838;28;20690;-83
2022/02/16 01:35:16;;;;;;;9.13;4.03;;;29.00;46.50;;;;;;5032465;28;20216;-83
2022/02/16 01:37:43;;;;;;;10.77;3.40;;;28.90;47.80;;;;;;5031156;28;20226;-83
2022/02/16 01:40:12;;;;;;;14.53;2.70;;;28.80;47.20;;;;;;5031000;28;20192;-77
2022/02/16 01:42:40;;;;;;;11.00;2.07;;;28.50;48.20;;;;;;5029911;28;20255;-82
2022/02/16 01:45:09;;;;;;;9.87;2.40;;;28.70;47.80;;;;;;5030791;28;20323;-82
2022/02/16 01:47:40;;;;;;;12.10;2.67;;;28.80;47.40;;;;;;5026311;28;20185;-82
2022/02/16 01:50:09;;;;;;;12.43;2.10;;;28.60;48.20;;;;;;5046151;28;20208;-79
2022/02/16 01:52:36;;;;;;;13.10;2.77;;;28.60;48.60;;;;;;5030271;28;20378;-87
2022/02/16 01:55:04;;;;;;;6.90;2.20;;;28.60;48.80;;;;;;5031332;28;20177;-82
2022/02/16 01:57:34;;;;;;;10.37;2.70;;;28.60;48.10;;;;;;5032703;28;20181;-83
2022/02/16 02:00:01;;;;;;;12.87;2.03;;;29.00;47.90;;;;;;5033311;28;20211;-87
2022/02/16 02:02:29;;;;;;;12.00;2.33;;;29.00;47.40;;;;;;5030934;28;20184;-76
2022/02/16 02:04:57;;;;;;;10.77;2.30;;;29.20;47.00;;;;;;5031227;28;20219;-81
2022/02/16 02:07:24;;;;;;;12.97;2.47;;;28.90;47.70;;;;;;5028821;28;20169;-84
2022/02/16 02:09:51;;;;;;;12.00;2.33;;;29.20;47.30;;;;;;5031149;28;20176;-76
2022/02/16 02:12:19;;;;;;;8.27;2.20;;;29.60;45.10;;;;;;5028896;28;20180;-82
2022/02/16 02:14:53;;;;;;;11.47;2.23;;;29.20;46.00;;;;;;5031674;28;20176;-79
2022/02/16 02:17:20;;;;;;;6.37;1.70;;;28.90;47.00;;;;;;5030866;28;20173;-83
2022/02/16 02:19:48;;;;;;;8.43;2.30;;;29.10;46.50;;;;;;5032035;28;20208;-82
2022/02/16 02:22:18;;;;;;;11.53;2.30;;;29.30;45.40;;;;;;5030575;28;20525;-86
2022/02/16 02:24:46;;;;;;;7.93;2.30;;;29.80;45.00;;;;;;5031899;28;20339;-87
2022/02/16 02:27:13;;;;;;;7.43;1.83;;;29.80;44.10;;;;;;5030323;28;20197;-76
2022/02/16 02:29:42;;;;;;;9.50;2.10;;;29.30;44.70;;;;;;5025328;28;20266;-86
2022/02/16 02:32:09;;;;;;;9.47;2.67;;;29.30;45.00;;;;;;5028456;28;20322;-81
2022/02/16 02:34:37;;;;;;;11.17;2.50;;;29.60;45.00;;;;;;5030478;28;20986;-76
2022/02/16 02:37:04;;;;;;;9.48;2.00;;;29.30;45.30;;;;;;5029316;28;20181;-83
2022/02/16 02:39:31;;;;;;;12.77;3.87;;;30.10;45.20;;;;;;5029485;28;20181;-88
2022/02/16 02:41:59;;;;;;;8.85;2.25;;;30.40;44.70;;;;;;5033193;28;20224;-83
2022/02/16 02:44:26;;;;;;;9.63;2.30;;;30.60;42.90;;;;;;5033868;28;20690;-76
2022/02/16 02:46:54;;;;;;;9.60;2.33;;;30.00;44.40;;;;;;5032419;28;20295;-83
2022/02/16 02:49:21;;;;;;;7.95;2.15;;;30.40;43.90;;;;;;5032810;28;20183;-73
2022/02/16 02:51:49;;;;;;;10.82;2.80;;;29.80;44.60;;;;;;5034098;28;20195;-83
2022/02/16 02:54:16;;;;;;;6.55;1.73;;;29.80;45.50;;;;;;5033197;28;20291;-84
2022/02/16 02:56:44;;;;;;;13.00;2.30;;;29.90;44.90;;;;;;5035766;28;20188;-83
2022/02/16 02:59:11;;;;;;;8.87;2.00;;;30.00;45.30;;;;;;5034060;28;20184;-81
2022/02/16 03:01:42;;;;;;;14.33;2.57;;;30.10;45.30;;;;;;5034443;28;20263;-82
2022/02/16 03:04:09;;;;;;;10.40;2.50;;;30.40;44.80;;;;;;5049559;28;20197;-85
2022/02/16 03:06:36;;;;;;;9.50;2.60;;;30.30;44.40;;;;;;5034144;28;20199;-82
2022/02/16 03:09:04;;;;;;;9.27;2.08;;;30.00;44.90;;;;;;5035376;28;20173;-83
2022/02/16 03:11:31;;;;;;;8.93;2.33;;;30.10;45.10;;;;;;5035098;28;20272;-85
2022/02/16 03:13:59;;;;;;;11.10;2.27;;;29.80;45.30;;;;;;5035311;28;21406;-76
2022/02/16 03:16:26;;;;;;;9.57;2.30;;;29.40;46.20;;;;;;5031857;28;20181;-78
2022/02/16 03:18:54;;;;;;;11.77;2.13;;;29.70;45.60;;;;;;5035674;28;20188;-78
2022/02/16 03:21:21;;;;;;;9.13;2.28;;;29.50;45.90;;;;;;5034050;28;20183;-74
2022/02/16 03:23:48;;;;;;;11.82;2.35;;;29.30;46.00;;;;;;5034969;28;20206;-76
2022/02/16 03:26:15;;;;;;;15.40;2.30;;;29.10;46.70;;;;;;5034679;28;20242;-74
2022/02/16 03:28:43;;;;;;;13.70;2.47;;;29.70;45.90;;;;;;5031323;28;20211;-80
2022/02/16 03:31:10;;;;;;;12.70;2.25;;;29.80;45.30;;;;;;5037131;28;20671;-80
2022/02/16 03:33:38;;;;;;;8.15;2.13;;;29.80;44.30;;;;;;5034376;28;20189;-81
2022/02/16 03:36:05;;;;;;;12.50;2.10;;;29.90;44.90;;;;;;5035058;28;20259;-73
2022/02/16 03:38:33;;;;;;;10.00;2.33;;;30.10;45.20;;;;;;5035291;28;20196;-74
2022/02/16 03:41:00;;;;;;;10.85;2.08;;;29.90;45.50;;;;;;5033437;28;20248;-73
2022/02/16 03:43:27;;;;;;;9.05;2.05;;;29.80;45.90;;;;;;5034224;28;20192;-79
2022/02/16 03:45:55;;;;;;;10.93;2.58;;;29.90;45.70;;;;;;5032176;28;20247;-80
2022/02/16 03:48:22;;;;;;;12.38;2.45;;;30.40;44.70;;;;;;5031477;28;20233;-80
2022/02/16 03:50:50;;;;;;;10.05;2.17;;;30.30;43.60;;;;;;5032371;28;20832;-77
2022/02/16 03:53:19;;;;;;;8.23;2.53;;;30.50;43.60;;;;;;5034237;28;20200;-77
2022/02/16 03:55:46;;;;;;;8.32;2.17;;;30.30;43.20;;;;;;5033428;28;20662;-81
2022/02/16 03:58:14;;;;;;;12.60;2.33;;;30.10;44.20;;;;;;5033699;28;20177;-79
2022/02/16 04:00:41;;;;;;;10.30;3.50;;;30.30;45.60;;;;;;5032982;28;20211;-74
2022/02/16 04:03:10;;;;;;;12.30;2.97;;;30.40;44.10;;;;;;5032928;28;20256;-81
2022/02/16 04:05:40;;;;;;;12.43;2.70;;;30.60;43.70;;;;;;5033779;28;20212;-83
2022/02/16 04:08:08;;;;;;;16.10;2.28;;;30.20;44.30;;;;;;5034258;28;20219;-83
2022/02/16 04:10:36;;;;;;;11.90;2.15;;;30.50;44.00;;;;;;5033187;28;20191;-77
2022/02/16 04:13:03;;;;;;;7.72;2.58;;;30.30;44.20;;;;;;5032933;28;20536;-82
2022/02/16 04:15:30;;;;;;;5.25;1.80;;;29.80;45.50;;;;;;5032606;28;20217;-78
2022/02/16 04:17:58;;;;;;;7.68;2.08;;;30.20;43.50;;;;;;5032709;28;20168;-75
2022/02/16 04:20:25;;;;;;;13.35;2.38;;;30.30;42.90;;;;;;5032848;28;20180;-81
2022/02/16 04:22:53;;;;;;;11.60;4.13;;;30.50;43.20;;;;;;5032049;28;20207;-80
2022/02/16 04:25:20;;;;;;;7.70;2.58;;;30.60;41.80;;;;;;5032675;28;20261;-87
2022/02/16 04:27:48;;;;;;;14.07;3.25;;;30.60;42.30;;;;;;5032940;28;20196;-83
2022/02/16 04:30:17;;;;;;;7.80;1.85;;;30.60;42.40;;;;;;5033648;28;20212;-81
2022/02/16 04:32:44;;;;;;;12.50;2.50;;;30.40;43.40;;;;;;5032984;28;20184;-79
2022/02/16 04:35:12;;;;;;;5.65;1.85;;;30.80;42.80;;;;;;5032834;28;20221;-80
2022/02/16 04:37:39;;;;;;;8.75;2.08;;;31.00;42.50;;;;;;5045507;28;20180;-80
2022/02/16 04:40:08;;;;;;;12.35;2.22;;;30.80;42.80;;;;;;5033630;28;20271;-82
2022/02/16 04:42:35;;;;;;;8.20;2.13;;;31.00;43.10;;;;;;5031227;28;20221;-78
2022/02/16 04:45:03;;;;;;;9.70;2.40;;;31.10;43.40;;;;;;5032783;28;20313;-85
2022/02/16 04:47:30;;;;;;;9.90;1.88;;;30.80;43.80;;;;;;5032586;28;20168;-88
2022/02/16 04:49:58;;;;;;;12.98;2.22;;;30.70;43.90;;;;;;5029957;28;20185;-87
2022/02/16 04:52:34;;;;;;;9.25;1.95;;;31.30;42.30;;;;;;5031506;28;20172;-84
2022/02/16 04:55:07;;;;;;;8.23;2.30;;;30.90;43.00;;;;;;5033373;28;20176;-81
2022/02/16 04:57:38;;;;;;;13.95;2.35;;;31.80;41.30;;;;;;5032562;28;20192;-80
2022/02/16 05:00:07;;;;;;;8.55;2.00;;;31.40;41.70;;;;;;5028721;28;20259;-82
2022/02/16 05:02:35;;;;;;;9.20;2.55;;;31.70;42.40;;;;;;5030863;28;20184;-87
2022/02/16 05:05:02;;;;;;;8.32;2.13;;;31.20;43.50;;;;;;5023992;28;20224;-81
2022/02/16 05:07:30;;;;;;;11.90;2.60;;;30.30;45.90;;;;;;5027465;28;20596;-82
2022/02/16 05:09:57;;;;;;;9.48;1.90;;;30.50;45.60;;;;;;5031900;28;20279;-79
2022/02/16 05:12:24;;;;;;;9.75;2.33;;;30.60;45.70;;;;;;5031905;28;20176;-81
2022/02/16 05:14:52;;;;;;;7.72;1.92;;;30.30;46.10;;;;;;5032849;28;20184;-79
2022/02/16 05:17:20;;;;;;;8.65;2.00;;;30.80;45.60;;;;;;5032036;28;20211;-83
2022/02/16 05:19:47;;;;;;;8.55;2.25;;;30.30;46.30;;;;;;5033443;28;20184;-81
2022/02/16 05:22:14;;;;;;;11.55;2.22;;;30.30;46.70;;;;;;5032155;28;20658;-83
2022/02/16 05:24:42;;;;;;;14.93;3.08;;;30.80;44.90;;;;;;5031161;28;20212;-80
2022/02/16 05:27:09;;;;;;;13.68;2.50;;;30.40;46.40;;;;;;5030076;28;20207;-80
2022/02/16 05:29:36;;;;;;;7.35;1.88;;;30.80;45.40;;;;;;5031225;28;20193;-84
2022/02/16 05:32:04;;;;;;;11.07;2.10;;;30.50;45.20;;;;;;5032786;28;20177;-78
2022/02/16 05:34:32;;;;;;;14.82;2.70;;;30.40;45.40;;;;;;5032539;28;20650;-78
2022/02/16 05:37:00;;;;;;;9.85;2.13;;;29.80;47.20;;;;;;5032885;28;20234;-80
2022/02/16 05:39:27;;;;;;;14.70;2.47;;;30.80;46.10;;;;;;5031897;28;20172;-85
2022/02/16 05:42:03;;;;;;;7.30;2.25;;;31.70;44.50;;;;;;5030578;28;20239;-83
2022/02/16 05:44:40;;;;;;;10.45;2.25;;;31.90;43.80;;;;;;5032153;28;20227;-85
2022/02/16 05:47:07;;;;;;;9.20;1.92;;;31.50;44.10;;;;;;5031875;28;20215;-79
2022/02/16 05:49:47;;;;;;;9.32;2.08;;;30.50;46.10;;;;;;5031365;28;20181;-84
2022/02/16 05:52:24;;;;;;;6.40;1.77;;;30.30;47.30;;;;;;5030263;28;20203;-81
2022/02/16 05:54:55;;;;;;;12.52;2.25;;;30.70;46.50;;;;;;5026717;28;20180;-76
2022/02/16 05:57:22;;;;;;;8.23;2.05;;;30.70;45.40;;;;;;5026675;28;20186;-82
2022/02/16 05:59:50;;;;;;;8.20;2.08;;;30.50;45.70;;;;;;5028735;28;20234;-82
2022/02/16 06:02:17;;;;;;;15.20;1.80;;;30.60;45.80;;;;;;5027047;28;20178;-78
2022/02/16 06:04:47;;;;;;;9.20;2.08;;;30.40;45.30;;;;;;5031203;28;20666;-79
2022/02/16 06:07:15;;;;;;;8.02;1.92;;;30.30;46.30;;;;;;5031680;28;20195;-77
2022/02/16 06:09:42;;;;;;;10.63;2.03;;;31.00;45.50;;;;;;5028253;28;20745;-79
2022/02/16 06:12:09;;;;;;;9.23;2.15;;;30.90;44.70;;;;;;5028577;28;20181;-78
2022/02/16 06:14:37;;;;;;;11.63;2.30;;;30.70;45.80;;;;;;5031616;28;20249;-79
2022/02/16 06:17:04;;;;;;;5.70;1.65;;;31.00;44.90;;;;;;5031775;28;20188;-80
2022/02/16 06:19:32;;;;;;;8.65;1.80;;;30.50;46.60;;;;;;5031009;28;20201;-79
2022/02/16 06:21:59;;;;;;;9.52;2.17;;;30.40;46.30;;;;;;5031964;28;20597;-77
2022/02/16 06:24:47;;;;;;;9.90;1.92;;;29.80;48.00;;;;;;5031340;28;20193;-81
2022/02/16 06:27:18;;;;;;;11.48;2.00;;;30.30;46.00;;;;;;5030222;28;20188;-84
2022/02/16 06:29:45;;;;;;;9.25;2.20;;;29.90;47.50;;;;;;5042578;28;20231;-82
2022/02/16 06:32:16;;;;;;;9.15;2.05;;;30.40;45.30;;;;;;5028410;28;20194;-84
2022/02/16 06:34:43;;;;;;;9.40;2.53;;;29.70;46.00;;;;;;5029197;28;20184;-75
2022/02/16 06:37:10;;;;;;;8.90;2.00;;;29.90;45.80;;;;;;5029625;28;20512;-77
2022/02/16 06:39:40;;;;;;;11.68;3.47;;;29.90;46.20;;;;;;5029620;28;20195;-78
2022/02/16 06:42:08;;;;;;;8.40;2.15;;;30.20;45.20;;;;;;5029382;28;20315;-78
2022/02/16 06:44:35;;;;;;;6.65;1.50;;;29.80;46.00;;;;;;5046179;28;20216;-78
2022/02/16 06:47:03;;;;;;;7.40;2.22;;;29.70;45.80;;;;;;5031073;28;20673;-80
2022/02/16 06:49:39;;;;;;;9.15;2.72;;;29.40;46.30;;;;;;5030678;28;20180;-86
2022/02/16 06:52:09;;;;;;;13.20;3.75;;;29.60;45.90;;;;;;5030068;28;20191;-78
2022/02/16 06:54:40;;;;;;;6.45;1.75;;;30.00;45.10;;;;;;5029289;28;20193;-81
2022/02/16 06:57:10;;;;;;;6.35;1.65;;;29.60;45.70;;;;;;5030234;28;20577;-81
2022/02/16 06:59:37;;;;;;;7.47;1.75;;;30.10;44.90;;;;;;5030953;28;20180;-78
2022/02/16 07:02:05;;;;;;;11.05;1.90;;;29.10;48.10;;;;;;5030780;28;20259;-81
2022/02/16 07:04:32;;;;;;;6.25;1.75;;;29.30;47.30;;;;;;5029659;28;20578;-80
2022/02/16 07:06:59;;;;;;;8.40;1.98;;;29.80;46.60;;;;;;5031206;28;20268;-79
2022/02/16 07:09:27;;;;;;;7.13;2.00;;;30.00;46.50;;;;;;5031508;28;20180;-81
2022/02/16 07:11:55;;;;;;;6.40;1.48;;;29.90;47.10;;;;;;5030847;28;20192;-80
2022/02/16 07:14:25;;;;;;;7.13;1.33;;;29.50;48.20;;;;;;5031167;28;20210;-74
2022/02/16 07:16:53;;;;;;;8.23;1.67;;;29.40;48.80;;;;;;5031459;28;20181;-77
2022/02/16 07:19:22;;;;;;;10.25;1.40;;;28.80;50.20;;;;;;5030130;28;20259;-78
2022/02/16 07:21:49;;;;;;;7.75;1.80;;;28.60;49.60;;;;;;5031150;28;20181;-86
2022/02/16 07:24:17;;;;;;;7.77;1.60;;;28.70;49.60;;;;;;5032754;28;20180;-76
2022/02/16 07:26:45;;;;;;;7.47;2.10;;;28.50;50.60;;;;;;5033121;28;20651;-82
2022/02/16 07:29:13;;;;;;;10.83;1.93;;;28.90;50.30;;;;;;5031073;28;20176;-76
2022/02/16 07:31:40;;;;;;;10.93;1.88;;;28.60;51.10;;;;;;5034594;28;20275;-78
2022/02/16 07:34:08;;;;;;;11.83;1.93;;;28.60;51.50;;;;;;5035027;28;20611;-80
2022/02/16 07:36:38;;;;;;;8.73;1.50;;;28.50;51.70;;;;;;5034796;28;20211;-77
2022/02/16 07:39:06;;;;;;;9.17;1.80;;;28.20;52.60;;;;;;5035399;28;20542;-78
2022/02/16 07:41:33;;;;;;;11.23;2.37;;;28.30;52.10;;;;;;5035064;28;20218;-79
2022/02/16 07:44:10;;;;;;;;;;;;;;;;;;;;;
2022/02/16 07:46:41;;;;;;;7.27;1.30;;;28.30;52.40;;;;;;5035030;28;20184;-82
2022/02/16 07:49:08;;;;;;;5.97;1.27;;;28.40;52.10;;;;;;5034355;28;20176;-83
2022/02/16 07:51:36;;;;;;;9.20;1.83;;;27.80;53.30;;;;;;5034832;28;20179;-85
2022/02/16 07:54:03;;;;;;;10.00;1.70;;;27.40;54.80;;;;;;5035251;28;20192;-77
2022/02/16 07:56:34;;;;;;;10.13;3.40;;;27.30;55.60;;;;;;5033902;28;20564;-78
2022/02/16 07:59:05;;;;;;;10.27;3.10;;;27.20;56.40;;;;;;5031235;28;20180;-84
2022/02/16 08:01:39;;;;;;;8.80;1.87;;;27.20;55.80;;;;;;5033413;28;20239;-81
2022/02/16 08:04:18;;;;;;;8.83;2.27;;;26.80;56.60;;;;;;5032502;28;20208;-82
2022/02/16 08:06:47;;;;;;;10.33;2.23;;;26.10;59.20;;;;;;5032480;28;20203;-78
2022/02/16 08:09:18;;;;;;;9.97;2.27;;;25.80;60.90;;;;;;5034172;28;20203;-80
2022/02/16 08:11:49;;;;;;;12.90;2.53;;;25.50;62.10;;;;;;5034072;28;20192;-83
2022/02/16 08:14:17;;;;;;;10.43;2.20;;;25.30;62.90;;;;;;5034326;28;20602;-78
2022/02/16 08:16:44;;;;;;;8.27;1.73;;;25.20;63.90;;;;;;5033106;28;20184;-80
2022/02/16 08:19:15;;;;;;;11.80;2.93;;;25.00;64.90;;;;;;5032070;28;20249;-78
2022/02/16 08:21:46;;;;;;;11.93;2.33;;;25.00;65.60;;;;;;5031459;28;20552;-84
2022/02/16 08:24:13;;;;;;;11.50;2.30;;;24.80;65.90;;;;;;5031979;28;20176;-87
2022/02/16 08:26:41;;;;;;;12.93;2.67;;;24.70;66.90;;;;;;5030246;28;20181;-90
2022/02/16 08:29:08;;;;;;;13.87;2.17;;;24.60;67.10;;;;;;5026159;28;20190;-82
2022/02/16 08:31:36;;;;;;;11.20;2.60;;;24.60;67.30;;;;;;5029554;28;20211;-85
2022/02/16 08:34:03;;;;;;;13.67;2.17;;;24.50;67.90;;;;;;5041825;28;20185;-86
2022/02/16 08:36:30;;;;;;;12.03;2.53;;;24.50;68.50;;;;;;5030313;28;21527;-82
2022/02/16 08:38:58;;;;;;;13.03;1.80;;;24.40;68.80;;;;;;5032560;28;20267;-83
2022/02/16 08:41:28;;;;;;;12.40;2.30;;;24.40;68.30;;;;;;5031781;28;20262;-84
2022/02/16 08:43:56;;;;;;;12.00;1.90;;;24.30;68.70;;;;;;5033722;28;20180;-83
2022/02/16 08:46:23;;;;;;;18.33;5.83;;;24.30;68.90;;;;;;5032433;28;20216;-84
2022/02/16 08:48:51;;;;;;;8.87;2.33;;;24.20;69.40;;;;;;5033496;28;20532;-78
2022/02/16 08:51:31;;;;;;;11.50;1.90;;;24.20;69.60;;;;;;5032864;28;20670;-84
2022/02/16 08:53:59;;;;;;;13.90;2.30;;;24.10;69.40;;;;;;5028483;28;20187;-78
2022/02/16 08:56:29;;;;;;;13.17;2.97;;;24.10;69.90;;;;;;5033476;28;20172;-82
2022/02/16 08:59:00;;;;;;;10.27;2.73;;;24.00;69.90;;;;;;5048647;28;20188;-85
2022/02/16 09:01:32;;;;;;;9.23;2.20;;;24.00;70.40;;;;;;5047475;28;20176;-83
2022/02/16 09:04:00;;;;;;;10.17;2.70;;;23.90;70.50;;;;;;5033458;28;20212;-79
2022/02/16 09:06:35;;;;;;;15.23;3.00;;;24.00;70.60;;;;;;5031141;28;20223;-82
2022/02/16 09:09:04;;;;;;;10.87;2.10;;;23.90;70.50;;;;;;5031112;28;20222;-83
2022/02/16 09:11:31;;;;;;;12.77;2.43;;;23.80;71.10;;;;;;5032253;28;20185;-81
2022/02/16 09:14:03;;;;;;;11.13;2.30;;;23.80;71.40;;;;;;5032995;28;20168;-81
2022/02/16 09:16:30;;;;;;;12.87;2.37;;;23.80;71.60;;;;;;5032691;28;20654;-79
2022/02/16 09:18:58;;;;;;;15.93;2.50;;;23.80;72.00;;;;;;5033617;28;20195;-78
2022/02/16 09:21:25;;;;;;;11.37;2.13;;;23.80;72.10;;;;;;5032010;28;20211;-76
2022/02/16 09:23:55;;;;;;;14.37;2.60;;;23.80;72.40;;;;;;5031857;28;20184;-79
2022/02/16 09:26:23;;;;;;;16.77;2.30;;;23.80;73.10;;;;;;5031783;28;20208;-79
2022/02/16 09:28:50;;;;;;;10.90;2.07;;;23.70;73.50;;;;;;5032597;28;20264;-77
2022/02/16 09:31:17;;;;;;;8.77;2.37;;;23.70;73.90;;;;;;5032481;28;20192;-80
2022/02/16 09:33:45;;;;;;;10.00;2.27;;;23.70;74.50;;;;;;5032906;28;20186;-81
2022/02/16 09:36:12;;;;;;;14.93;2.67;;;23.70;74.60;;;;;;5033019;28;20195;-79
2022/02/16 09:38:39;;;;;;;10.50;2.47;;;23.70;74.70;;;;;;5031816;28;20184;-79
2022/02/16 09:41:08;;;;;;;12.10;2.27;;;23.70;75.00;;;;;;5032735;28;20217;-78
2022/02/16 09:43:36;;;;;;;11.93;2.83;;;23.70;75.30;;;;;;5032344;28;20192;-77
2022/02/16 09:46:04;;;;;;;20.87;3.90;;;23.60;75.40;;;;;;5031576;28;21632;-82
2022/02/16 09:48:35;;;;;;;18.67;4.13;;;23.60;75.60;;;;;;5032240;28;20622;-84
2022/02/16 09:51:02;;;;;;;14.30;3.37;;;23.50;76.00;;;;;;5030988;28;20655;-82
2022/02/16 09:53:31;;;;;;;17.00;2.97;;;23.50;76.40;;;;;;5031400;28;20767;-77
2022/02/16 09:55:59;;;;;;;12.53;2.27;;;23.50;76.40;;;;;;5032842;28;20181;-80
2022/02/16 09:58:27;;;;;;;16.50;2.60;;;23.50;76.50;;;;;;5029329;28;20188;-80
2022/02/16 10:01:09;;;;;;;13.07;3.10;;;23.40;76.50;;;;;;5028272;28;20192;-76
2022/02/16 10:03:36;;;;;;;11.47;3.57;;;23.40;76.20;;;;;;5030878;28;20189;-76
2022/02/16 10:06:04;;;;;;;21.67;4.10;;;23.40;76.30;;;;;;5031583;28;20244;-79
2022/02/16 10:08:47;;;;;;;13.10;2.43;;;23.40;76.20;;;;;;5030838;28;20188;-83
2022/02/16 10:11:16;;;;;;;20.17;2.40;;;23.40;76.30;;;;;;5032307;28;20195;-77
2022/02/16 10:13:44;;;;;;;12.90;2.43;;;23.40;76.20;;;;;;5031056;28;20176;-76
2022/02/16 10:16:11;;;;;;;16.27;2.60;;;23.40;76.20;;;;;;5031377;28;20173;-78
2022/02/16 10:19:02;;;;;;;15.23;2.57;;;23.40;76.20;;;;;;5031227;28;20184;-76
2022/02/16 10:21:30;;;;;;;10.53;2.20;;;23.30;76.50;;;;;;5031002;28;20185;-78
2022/02/16 10:23:57;;;;;;;10.60;2.40;;;23.30;76.60;;;;;;5031368;28;20224;-80
2022/02/16 10:26:56;;;;;;;15.93;2.80;;;23.30;76.80;;;;;;5032017;28;20220;-78
2022/02/16 10:29:27;;;;;;;16.10;3.73;;;23.30;76.80;;;;;;5030061;28;20206;-80
2022/02/16 10:31:54;;;;;;;9.73;2.60;;;23.30;77.10;;;;;;5031916;28;20211;-77
2022/02/16 10:34:22;;;;;;;17.47;2.43;;;23.30;77.30;;;;;;5031745;28;20259;-82
2022/02/16 10:36:50;;;;;;;16.80;2.63;;;23.30;77.30;;;;;;5031699;28;20188;-80
2022/02/16 10:39:20;;;;;;;14.50;2.70;;;23.30;77.20;;;;;;5031820;28;20189;-83
2022/02/16 10:41:58;;;;;;;21.53;2.60;;;23.30;77.10;;;;;;5028854;28;20278;-78
2022/02/16 10:44:31;;;;;;;15.40;3.27;;;23.30;76.80;;;;;;5031166;28;20180;-77
2022/02/16 10:47:05;;;;;;;10.67;2.30;;;23.30;76.60;;;;;;5046817;28;20520;-80
2022/02/16 10:49:35;;;;;;;14.43;2.70;;;23.30;77.00;;;;;;5031391;28;20310;-82
2022/02/16 10:52:14;;;;;;;13.87;2.50;;;23.30;76.90;;;;;;5039509;28;20203;-80
2022/02/16 10:54:53;;;;;;;13.10;2.63;;;23.30;76.30;;;;;;5042333;28;20188;-79
2022/02/16 10:57:21;;;;;;;11.17;3.13;;;23.30;76.40;;;;;;5032000;28;20183;-76
2022/02/16 10:59:49;;;;;;;10.93;2.07;;;23.30;76.40;;;;;;5032008;28;20262;-77
2022/02/16 11:02:21;;;;;;;14.57;2.50;;;23.20;76.60;;;;;;5030960;28;20187;-78
2022/02/16 11:04:52;;;;;;;12.30;2.13;;;23.20;76.80;;;;;;5034600;28;20204;-79
2022/02/16 11:07:22;;;;;;;15.87;2.47;;;23.20;76.60;;;;;;5035395;28;20180;-78
2022/02/16 11:09:52;;;;;;;13.07;2.47;;;23.20;76.20;;;;;;5034655;28;20184;-79
2022/02/16 11:12:20;;;;;;;15.00;2.60;;;23.20;76.50;;;;;;5033048;28;20241;-80
2022/02/16 11:14:47;;;;;;;12.40;2.77;;;23.10;76.80;;;;;;5035500;28;20188;-79
2022/02/16 11:17:15;;;;;;;18.50;2.77;;;23.20;76.60;;;;;;5035247;28;20195;-78
2022/02/16 11:19:43;;;;;;;16.63;2.50;;;23.20;76.80;;;;;;5033749;28;20180;-77
2022/02/16 11:22:11;;;;;;;12.33;3.23;;;23.20;77.00;;;;;;5035711;28;20544;-78
2022/02/16 11:24:43;;;;;;;16.73;2.70;;;23.20;77.00;;;;;;5035294;28;20225;-79
2022/02/16 11:27:27;;;;;;;15.23;2.47;;;23.10;77.30;;;;;;5035291;28;20732;-79
2022/02/16 11:30:04;;;;;;;10.73;2.10;;;23.00;77.20;;;;;;5035485;28;20196;-76
2022/02/16 11:32:37;;;;;;;16.33;2.30;;;23.00;77.20;;;;;;5035641;28;20577;-76
2022/02/16 11:35:18;;;;;;;12.20;2.63;;;23.10;76.80;;;;;;5035668;28;20686;-77
2022/02/16 11:38:10;;;;;;;10.13;2.27;;;23.10;76.60;;;;;;5035232;28;20180;-76
2022/02/16 11:40:44;;;;;;;14.60;3.10;;;23.10;76.40;;;;;;5035071;28;20172;-77
2022/02/16 11:43:14;;;;;;;12.70;2.20;;;23.10;76.30;;;;;;5050135;28;20185;-81
2022/02/16 11:45:55;;;;;;;16.47;2.83;;;23.00;76.30;;;;;;5035390;28;20200;-76
2022/02/16 11:48:41;;;;;;;7.23;1.97;;;23.10;76.30;;;;;;5033259;28;20176;-79
2022/02/16 11:51:25;;;;;;;19.03;3.07;;;23.00;76.60;;;;;;5034806;28;20184;-77
2022/02/16 11:53:55;;;;;;;17.97;2.67;;;23.10;77.00;;;;;;5034376;28;20184;-79
2022/02/16 11:56:24;;;;;;;11.63;2.10;;;23.00;77.60;;;;;;5034639;28;20670;-78
2022/02/16 11:59:24;;;;;;;14.77;2.57;;;23.00;78.10;;;;;;5032908;28;20320;-77
2022/02/16 12:02:09;;;;;;;17.43;2.57;;;23.00;78.50;;;;;;5034683;28;20173;-78
2022/02/16 12:04:54;;;;;;;13.30;2.83;;;23.00;78.70;;;;;;5034326;28;20202;-78
2022/02/16 12:07:27;;;;;;;15.97;2.63;;;23.00;79.10;;;;;;5031619;28;20298;-76
2022/02/16 12:10:39;;;;;;;19.23;3.13;;;22.90;79.50;;;;;;5033512;28;20263;-79
2022/02/16 12:13:07;;;;;;;19.30;2.70;;;23.00;79.80;;;;;;5009796;28;20219;-76
2022/02/16 12:15:35;;;;;;;20.20;3.33;;;22.90;80.10;;;;;;5028435;28;20199;-78
2022/02/16 12:18:03;;;;;;;16.33;2.63;;;22.80;80.30;;;;;;5034511;28;20194;-77
2022/02/16 12:20:31;;;;;;;14.73;2.50;;;22.80;80.40;;;;;;5034289;28;20188;-76
2022/02/16 12:23:03;;;;;;;18.13;3.20;;;22.80;80.60;;;;;;5033877;28;20215;-78
2022/02/16 12:25:32;;;;;;;18.90;3.00;;;22.80;80.80;;;;;;5034396;28;20705;-77
2022/02/16 12:28:06;;;;;;;18.33;3.03;;;22.90;80.60;;;;;;5031999;28;20655;-81
2022/02/16 12:30:40;;;;;;;15.83;2.83;;;22.90;80.50;;;;;;5033963;28;20180;-85
2022/02/16 12:33:23;;;;;;;17.40;2.97;;;22.90;80.70;;;;;;5033829;28;20172;-77
2022/02/16 12:35:51;;;;;;;14.23;2.77;;;22.80;80.80;;;;;;5033877;28;20212;-86
2022/02/16 12:38:27;;;;;;;12.83;2.50;;;22.80;80.70;;;;;;5030737;28;20188;-77
2022/02/16 12:40:54;;;;;;;22.97;2.87;;;22.80;80.70;;;;;;5034302;28;20631;-76
2022/02/16 12:43:22;;;;;;;14.63;2.80;;;22.80;80.40;;;;;;5033800;28;20172;-77
2022/02/16 12:45:49;;;;;;;12.73;1.90;;;22.80;80.30;;;;;;5033511;28;20204;-78
2022/02/16 12:48:17;;;;;;;14.87;2.60;;;22.80;80.20;;;;;;5034169;28;20188;-76
2022/02/16 12:50:45;;;;;;;14.03;2.70;;;22.80;80.10;;;;;;5034375;28;20196;-79
2022/02/16 12:53:15;;;;;;;12.93;2.47;;;22.80;79.70;;;;;;5033395;28;20192;-78